createdAt,value
2018-01-20T00:00:48.904Z,2.69
2018-01-20T00:01:49.334Z,2.54
2018-01-20T00:02:49.340Z,2.53
2018-01-20T00:03:49.361Z,2.59
2018-01-20T00:05:04.141Z,2.54
2018-01-20T00:05:49.386Z,2.54
2018-01-20T00:06:49.377Z,2.66
2018-01-20T00:07:49.408Z,2.66
2018-01-20T00:08:49.438Z,2.66
2018-01-20T00:09:49.464Z,2.59
2018-01-20T00:10:49.561Z,2.56
2018-01-20T00:11:49.572Z,2.69
2018-01-20T00:12:49.464Z,2.64
2018-01-20T00:13:49.240Z,2.63
2018-01-20T00:15:04.177Z,2.59
2018-01-20T00:15:49.359Z,2.49
2018-01-20T00:16:49.031Z,2.59
2018-01-20T00:17:49.534Z,2.57
2018-01-20T00:18:49.570Z,2.56
2018-01-20T00:19:49.581Z,2.69
2018-01-20T00:20:49.583Z,2.69
2018-01-20T00:21:49.632Z,2.74
2018-01-20T00:22:49.634Z,2.82
2018-01-20T00:23:49.661Z,2.78
2018-01-20T00:25:04.336Z,2.92
2018-01-20T00:25:49.697Z,2.9
2018-01-20T00:27:04.347Z,2.97
2018-01-20T00:27:49.447Z,2.93
2018-01-20T00:28:49.474Z,2.99
2018-01-20T00:30:04.415Z,2.9
2018-01-20T00:30:49.749Z,2.96
2018-01-20T00:31:49.753Z,2.9
2018-01-20T00:32:49.752Z,2.89
2018-01-20T00:33:49.807Z,2.92
2018-01-20T00:34:49.784Z,2.82
2018-01-20T00:35:49.805Z,2.96
2018-01-20T00:36:49.580Z,2.99
2018-01-20T00:37:49.843Z,2.99
2018-01-20T00:38:49.840Z,3
2018-01-20T00:39:49.849Z,2.96
2018-01-20T00:40:49.886Z,3.06
2018-01-20T00:41:49.884Z,3.03
2018-01-20T00:42:49.922Z,3.06
2018-01-20T00:43:49.934Z,3.05
2018-01-20T00:44:49.927Z,3.05
2018-01-20T00:45:49.700Z,3.05
2018-01-20T00:46:49.981Z,3.05
2018-01-20T00:47:49.819Z,3.08
2018-01-20T00:48:50.002Z,3.02
2018-01-20T00:49:49.998Z,2.97
2018-01-20T00:50:49.762Z,2.95
2018-01-20T00:51:50.025Z,2.97
2018-01-20T00:52:50.041Z,2.99
2018-01-20T00:53:50.199Z,2.92
2018-01-20T00:54:50.076Z,2.82
2018-01-20T00:55:50.083Z,2.89
2018-01-20T00:56:50.111Z,2.87
2018-01-20T00:57:50.134Z,2.82
2018-01-20T00:59:49.926Z,2.85
2018-01-20T01:00:49.905Z,2.92
2018-01-20T01:02:04.849Z,2.89
2018-01-20T01:02:50.232Z,2.92
2018-01-20T01:03:50.194Z,2.93
2018-01-20T01:04:50.229Z,3.03
2018-01-20T01:05:50.246Z,3.05
2018-01-20T01:06:50.030Z,2.97
2018-01-20T01:07:50.270Z,2.93
2018-01-20T01:08:50.310Z,2.93
2018-01-20T01:09:50.386Z,2.82
2018-01-20T01:10:50.316Z,2.75
2018-01-20T01:11:50.314Z,2.82
2018-01-20T01:12:50.322Z,2.87
2018-01-20T01:13:50.346Z,2.9
2018-01-20T01:14:50.356Z,2.87
2018-01-20T01:15:50.419Z,2.93
2018-01-20T01:16:50.386Z,2.95
2018-01-20T01:18:04.835Z,2.77
2018-01-20T01:18:50.441Z,2.78
2018-01-20T01:19:50.181Z,2.72
2018-01-20T01:20:50.468Z,2.72
2018-01-20T01:21:50.265Z,2.56
2018-01-20T01:22:50.474Z,2.53
2018-01-20T01:23:50.502Z,2.52
2018-01-20T01:24:50.505Z,2.57
2018-01-20T01:25:50.538Z,2.57
2018-01-20T01:26:50.554Z,2.43
2018-01-20T01:27:50.556Z,2.35
2018-01-20T01:28:50.575Z,2.48
2018-01-20T01:29:50.331Z,2.49
2018-01-20T01:30:50.604Z,2.49
2018-01-20T01:31:50.621Z,2.48
2018-01-20T01:32:50.633Z,2.38
2018-01-20T01:34:05.308Z,2.35
2018-01-20T01:34:50.644Z,2.45
2018-01-20T01:35:50.446Z,2.42
2018-01-20T01:36:50.695Z,2.45
2018-01-20T01:37:50.432Z,2.41
2018-01-20T01:38:50.478Z,2.3
2018-01-20T01:39:50.752Z,2.38
2018-01-20T01:40:50.729Z,2.27
2018-01-20T01:41:50.781Z,2.35
2018-01-20T01:43:05.462Z,2.3
2018-01-20T01:44:05.469Z,2.38
2018-01-20T01:45:05.227Z,2.3
2018-01-20T01:45:50.794Z,2.35
2018-01-20T01:46:50.808Z,2.31
2018-01-20T01:47:50.576Z,2.35
2018-01-20T01:48:50.844Z,2.39
2018-01-20T01:50:50.937Z,2.36
2018-01-20T01:52:05.598Z,2.36
2018-01-20T01:52:50.679Z,2.36
2018-01-20T01:53:51.034Z,2.52
2018-01-20T01:54:50.935Z,2.42
2018-01-20T01:55:50.936Z,2.34
2018-01-20T01:57:50.976Z,2.35
2018-01-20T01:58:50.989Z,2.48
2018-01-20T01:59:50.995Z,2.54
2018-01-20T02:00:51.009Z,2.48
2018-01-20T02:02:05.713Z,2.49
2018-01-20T02:02:50.791Z,2.53
2018-01-20T02:03:50.551Z,2.53
2018-01-20T02:05:51.085Z,2.46
2018-01-20T02:06:51.122Z,2.52
2018-01-20T02:07:51.127Z,2.59
2018-01-20T02:09:51.140Z,2.67
2018-01-20T02:11:51.185Z,2.71
2018-01-20T02:12:51.189Z,2.72
2018-01-20T02:13:50.948Z,2.67
2018-01-20T02:15:05.913Z,2.71
2018-01-20T02:15:50.742Z,2.77
2018-01-20T02:17:05.936Z,2.67
2018-01-20T02:18:05.940Z,2.81
2018-01-20T02:18:51.307Z,2.71
2018-01-20T02:19:51.052Z,2.63
2018-01-20T02:21:51.330Z,2.77
2018-01-20T02:22:51.337Z,2.75
2018-01-20T02:23:51.335Z,2.93
2018-01-20T02:24:51.389Z,2.84
2018-01-20T02:25:51.387Z,2.97
2018-01-20T02:26:51.245Z,2.79
2018-01-20T02:27:51.413Z,2.84
2018-01-20T02:29:05.841Z,2.92
2018-01-20T02:29:51.464Z,2.82
2018-01-20T02:30:51.447Z,2.77
2018-01-20T02:31:51.323Z,2.71
2018-01-20T02:32:51.215Z,2.84
2018-01-20T02:33:51.480Z,2.87
2018-01-20T02:34:51.518Z,2.84
2018-01-20T02:35:51.278Z,2.84
2018-01-20T02:37:06.204Z,2.75
2018-01-20T02:37:51.585Z,2.77
2018-01-20T02:38:51.582Z,2.85
2018-01-20T02:39:51.328Z,2.89
2018-01-20T02:40:51.579Z,2.89
2018-01-20T02:41:51.344Z,2.96
2018-01-20T02:43:06.048Z,2.9
2018-01-20T02:43:51.372Z,2.9
2018-01-20T02:44:51.410Z,2.84
2018-01-20T02:45:51.420Z,2.92
2018-01-20T02:47:51.716Z,2.95
2018-01-20T02:48:51.708Z,3
2018-01-20T02:49:51.722Z,2.95
2018-01-20T02:50:51.753Z,2.87
2018-01-20T02:51:51.742Z,2.87
2018-01-20T02:53:06.450Z,2.93
2018-01-20T02:53:51.535Z,2.92
2018-01-20T02:54:51.819Z,2.87
2018-01-20T02:55:51.822Z,2.75
2018-01-20T02:56:51.560Z,2.93
2018-01-20T02:57:51.580Z,2.78
2018-01-20T02:58:51.600Z,2.89
2018-01-20T02:59:51.853Z,2.89
2018-01-20T03:00:51.890Z,2.87
2018-01-20T03:01:51.938Z,2.89
2018-01-20T03:03:51.935Z,2.89
2018-01-20T03:04:51.952Z,2.92
2018-01-20T03:05:51.934Z,2.9
2018-01-20T03:06:51.717Z,2.82
2018-01-20T03:08:06.645Z,2.78
2018-01-20T03:09:06.678Z,2.78
2018-01-20T03:09:52.002Z,2.89
2018-01-20T03:10:51.865Z,2.81
2018-01-20T03:11:51.891Z,2.79
2018-01-20T03:12:52.177Z,2.79
2018-01-20T03:13:51.566Z,2.82
2018-01-20T03:14:51.831Z,2.69
2018-01-20T03:15:52.100Z,2.74
2018-01-20T03:16:51.857Z,2.82
2018-01-20T03:17:51.879Z,2.71
2018-01-20T03:18:51.896Z,2.69
2018-01-20T03:19:52.166Z,2.72
2018-01-20T03:21:06.938Z,2.63
2018-01-20T03:21:52.207Z,2.52
2018-01-20T03:22:51.972Z,2.61
2018-01-20T03:23:52.213Z,2.6
2018-01-20T03:25:06.895Z,2.57
2018-01-20T03:25:52.248Z,2.54
2018-01-20T03:26:51.994Z,2.69
2018-01-20T03:27:52.354Z,2.64
2018-01-20T03:28:52.035Z,2.72
2018-01-20T03:29:52.287Z,2.79
2018-01-20T03:30:52.299Z,2.78
2018-01-20T03:31:52.072Z,2.78
2018-01-20T03:32:52.176Z,2.75
2018-01-20T03:33:52.361Z,2.71
2018-01-20T03:34:52.480Z,2.75
2018-01-20T03:35:52.120Z,2.66
2018-01-20T03:37:07.063Z,2.59
2018-01-20T03:37:52.406Z,2.75
2018-01-20T03:38:52.418Z,2.66
2018-01-20T03:40:07.113Z,2.59
2018-01-20T03:40:52.192Z,2.63
2018-01-20T03:41:52.209Z,2.56
2018-01-20T03:42:51.966Z,2.56
2018-01-20T03:43:52.505Z,2.46
2018-01-20T03:44:52.518Z,2.64
2018-01-20T03:46:52.564Z,2.48
2018-01-20T03:47:52.307Z,2.54
2018-01-20T03:48:52.312Z,2.53
2018-01-20T03:49:52.314Z,2.59
2018-01-20T03:50:52.626Z,2.53
2018-01-20T03:51:52.365Z,2.48
2018-01-20T03:52:52.612Z,2.42
2018-01-20T03:53:52.384Z,2.49
2018-01-20T03:55:07.317Z,2.46
2018-01-20T03:55:52.408Z,2.56
2018-01-20T03:56:52.663Z,2.54
2018-01-20T03:57:52.720Z,2.48
2018-01-20T03:58:52.707Z,2.52
2018-01-20T03:59:52.729Z,2.43
2018-01-20T04:00:52.721Z,2.36
2018-01-20T04:01:52.506Z,2.36
2018-01-20T04:02:52.773Z,2.45
2018-01-20T04:03:52.892Z,2.35
2018-01-20T04:04:52.533Z,2.43
2018-01-20T04:05:52.578Z,2.46
2018-01-20T04:06:52.570Z,2.52
2018-01-20T04:07:52.577Z,2.48
2018-01-20T04:09:07.623Z,2.38
2018-01-20T04:09:52.602Z,2.52
2018-01-20T04:10:52.618Z,2.38
2018-01-20T04:12:07.591Z,2.48
2018-01-20T04:12:52.655Z,2.48
2018-01-20T04:14:52.688Z,2.56
2018-01-20T04:15:52.685Z,2.57
2018-01-20T04:16:52.462Z,2.57
2018-01-20T04:17:52.733Z,2.71
2018-01-20T04:18:52.976Z,2.71
2018-01-20T04:19:52.506Z,2.71
2018-01-20T04:20:52.766Z,2.71
2018-01-20T04:21:53.042Z,2.67
2018-01-20T04:22:52.788Z,2.67
2018-01-20T04:23:53.084Z,2.71
2018-01-20T04:24:53.209Z,2.69
2018-01-20T04:25:52.822Z,2.75
2018-01-20T04:26:52.609Z,2.75
2018-01-20T04:28:07.533Z,2.79
2018-01-20T04:28:53.120Z,2.81
2018-01-20T04:29:53.249Z,2.72
2018-01-20T04:30:53.150Z,2.75
2018-01-20T04:31:53.199Z,2.67
2018-01-20T04:33:53.197Z,2.74
2018-01-20T04:34:53.232Z,2.77
2018-01-20T04:35:53.236Z,2.75
2018-01-20T04:36:52.994Z,2.85
2018-01-20T04:38:07.952Z,2.71
2018-01-20T04:38:53.266Z,2.74
2018-01-20T04:39:53.276Z,2.67
2018-01-20T04:40:53.316Z,2.67
2018-01-20T04:41:53.328Z,2.74
2018-01-20T04:42:53.326Z,2.69
2018-01-20T04:44:07.760Z,2.72
2018-01-20T04:44:53.112Z,2.72
2018-01-20T04:45:53.384Z,2.78
2018-01-20T04:46:53.393Z,2.78
2018-01-20T04:47:53.405Z,2.85
2018-01-20T04:48:53.429Z,2.87
2018-01-20T04:49:52.928Z,2.79
2018-01-20T04:50:53.228Z,2.89
2018-01-20T04:53:07.889Z,2.78
2018-01-20T04:53:53.244Z,2.78
2018-01-20T04:55:53.513Z,2.72
2018-01-20T04:56:53.292Z,2.75
2018-01-20T04:57:53.534Z,2.75
2018-01-20T04:58:53.293Z,2.84
2018-01-20T05:00:08.241Z,2.89
2018-01-20T05:00:53.594Z,2.87
2018-01-20T05:01:53.593Z,2.87
2018-01-20T05:02:53.355Z,2.75
2018-01-20T05:03:53.654Z,2.85
2018-01-20T05:04:53.647Z,2.78
2018-01-20T05:05:53.411Z,2.79
2018-01-20T05:06:53.419Z,2.77
2018-01-20T05:07:53.696Z,2.79
2018-01-20T05:08:53.473Z,2.84
2018-01-20T05:09:53.451Z,2.82
2018-01-20T05:11:53.734Z,2.78
2018-01-20T05:12:53.767Z,2.87
2018-01-20T05:14:08.438Z,2.84
2018-01-20T05:15:08.464Z,2.81
2018-01-20T05:15:53.559Z,2.78
2018-01-20T05:16:53.586Z,2.74
2018-01-20T05:17:53.841Z,2.67
2018-01-20T05:18:53.848Z,2.59
2018-01-20T05:19:53.872Z,2.61
2018-01-20T05:20:53.611Z,2.53
2018-01-20T05:21:53.872Z,2.49
2018-01-20T05:22:53.917Z,2.54
2018-01-20T05:23:53.919Z,2.53
2018-01-20T05:25:53.951Z,2.57
2018-01-20T05:26:53.964Z,2.52
2018-01-20T05:27:53.455Z,2.48
2018-01-20T05:28:53.748Z,2.6
2018-01-20T05:30:54.000Z,2.6
2018-01-20T05:31:54.011Z,2.49
2018-01-20T05:32:54.035Z,2.49
2018-01-20T05:33:54.076Z,2.57
2018-01-20T05:34:53.813Z,2.53
2018-01-20T05:35:54.081Z,2.54
2018-01-20T05:36:54.122Z,2.53
2018-01-20T05:37:54.199Z,2.52
2018-01-20T05:39:08.550Z,2.57
2018-01-20T05:40:08.558Z,2.67
2018-01-20T05:40:53.925Z,2.74
2018-01-20T05:41:53.931Z,2.72
2018-01-20T05:42:53.967Z,2.71
2018-01-20T05:43:54.223Z,2.66
2018-01-20T05:44:54.232Z,2.77
2018-01-20T05:46:08.897Z,2.78
2018-01-20T05:47:08.664Z,2.81
2018-01-20T05:47:54.262Z,2.81
2018-01-20T05:48:54.308Z,2.85
2018-01-20T05:49:54.024Z,2.79
2018-01-20T05:50:54.031Z,2.74
2018-01-20T05:51:54.319Z,2.75
2018-01-20T05:52:54.072Z,2.81
2018-01-20T05:53:53.825Z,2.93
2018-01-20T05:54:54.340Z,2.89
2018-01-20T05:55:54.128Z,2.82
2018-01-20T05:56:54.423Z,2.85
2018-01-20T05:57:54.138Z,2.87
2018-01-20T05:58:54.437Z,2.85
2018-01-20T05:59:54.437Z,2.85
2018-01-20T06:01:09.107Z,2.84
2018-01-20T06:01:53.964Z,2.9
2018-01-20T06:03:09.143Z,2.79
2018-01-20T06:03:54.466Z,2.74
2018-01-20T06:04:54.478Z,2.78
2018-01-20T06:05:54.523Z,2.75
2018-01-20T06:07:54.294Z,2.85
2018-01-20T06:08:54.303Z,2.84
2018-01-20T06:10:54.585Z,2.81
2018-01-20T06:12:54.612Z,2.85
2018-01-20T06:13:54.370Z,3.02
2018-01-20T06:14:54.424Z,2.9
2018-01-20T06:15:54.756Z,2.97
2018-01-20T06:16:54.649Z,2.95
2018-01-20T06:17:54.676Z,2.9
2018-01-20T06:19:09.360Z,2.89
2018-01-20T06:19:54.453Z,2.85
2018-01-20T06:20:54.717Z,2.78
2018-01-20T06:21:54.476Z,2.78
2018-01-20T06:22:54.759Z,2.82
2018-01-20T06:23:54.540Z,2.97
2018-01-20T06:24:54.790Z,2.75
2018-01-20T06:25:54.781Z,2.93
2018-01-20T06:26:54.817Z,2.95
2018-01-20T06:27:54.935Z,2.85
2018-01-20T06:28:54.572Z,2.96
2018-01-20T06:30:09.281Z,2.93
2018-01-20T06:30:54.886Z,2.96
2018-01-20T06:31:54.627Z,2.97
2018-01-20T06:33:54.664Z,3.06
2018-01-20T06:35:09.647Z,2.96
2018-01-20T06:35:54.698Z,2.99
2018-01-20T06:36:54.943Z,3.02
2018-01-20T06:37:54.991Z,3.03
2018-01-20T06:38:54.465Z,3.14
2018-01-20T06:39:54.748Z,3.14
2018-01-20T06:40:54.756Z,3.02
2018-01-20T06:41:55.024Z,3.03
2018-01-20T06:42:55.026Z,3.02
2018-01-20T06:43:54.550Z,3.03
2018-01-20T06:44:54.827Z,2.99
2018-01-20T06:45:54.836Z,2.96
2018-01-20T06:46:54.600Z,2.93
2018-01-20T06:47:55.092Z,2.95
2018-01-20T06:48:54.867Z,2.92
2018-01-20T06:50:09.654Z,2.87
2018-01-20T06:50:55.148Z,2.87
2018-01-20T06:52:54.918Z,2.85
2018-01-20T06:53:54.954Z,2.9
2018-01-20T06:54:54.973Z,2.97
2018-01-20T06:55:55.209Z,2.96
2018-01-20T06:56:55.231Z,2.82
2018-01-20T06:57:55.259Z,2.92
2018-01-20T06:58:55.040Z,2.85
2018-01-20T06:59:55.268Z,2.97
2018-01-20T07:00:55.070Z,2.97
2018-01-20T07:01:54.801Z,2.92
2018-01-20T07:02:55.080Z,2.9
2018-01-20T07:03:55.103Z,2.95
2018-01-20T07:04:55.099Z,2.97
2018-01-20T07:05:55.103Z,2.96
2018-01-20T07:06:55.411Z,2.97
2018-01-20T07:07:55.129Z,2.93
2018-01-20T07:08:55.177Z,2.92
2018-01-20T07:09:55.290Z,2.93
2018-01-20T07:10:55.461Z,2.93
2018-01-20T07:11:54.945Z,2.95
2018-01-20T07:12:55.226Z,2.9
2018-01-20T07:14:55.271Z,3.05
2018-01-20T07:15:55.542Z,3.08
2018-01-20T07:16:55.517Z,3.03
2018-01-20T07:17:55.564Z,3.05
2018-01-20T07:18:55.301Z,3.11
2018-01-20T07:19:55.575Z,3.08
2018-01-20T07:20:55.582Z,3.18
2018-01-20T07:22:10.289Z,3.13
2018-01-20T07:22:55.628Z,3.21
2018-01-20T07:23:55.614Z,3.05
2018-01-20T07:24:55.388Z,3.05
2018-01-20T07:25:55.659Z,3.15
2018-01-20T07:26:55.655Z,3.13
2018-01-20T07:27:55.694Z,3.08
2018-01-20T07:29:55.448Z,3.17
2018-01-20T07:30:55.759Z,3.17
2018-01-20T07:31:55.483Z,3.17
2018-01-20T07:32:55.521Z,3.17
2018-01-20T07:33:55.507Z,3.21
2018-01-20T07:35:10.465Z,3.03
2018-01-20T07:35:55.664Z,3.13
2018-01-20T07:38:10.244Z,3.03
2018-01-20T07:38:55.680Z,3.05
2018-01-20T07:39:55.857Z,3.05
2018-01-20T07:40:55.862Z,3.11
2018-01-20T07:41:55.871Z,3.17
2018-01-20T07:42:56.030Z,3.05
2018-01-20T07:43:55.757Z,3.08
2018-01-20T07:44:55.920Z,3.05
2018-01-20T07:46:55.983Z,3.08
2018-01-20T07:47:55.707Z,3.13
2018-01-20T07:48:55.992Z,3.14
2018-01-20T07:50:10.667Z,3.15
2018-01-20T07:51:10.687Z,3.15
2018-01-20T07:51:56.016Z,3.2
2018-01-20T07:52:56.051Z,3.2
2018-01-20T07:54:10.740Z,3.17
2018-01-20T07:54:56.084Z,3.11
2018-01-20T07:55:56.091Z,3.11
2018-01-20T07:56:56.086Z,3.2
2018-01-20T07:57:56.099Z,3.13
2018-01-20T07:58:56.164Z,3.17
2018-01-20T07:59:56.151Z,3.14
2018-01-20T08:00:56.162Z,3.21
2018-01-20T08:01:56.164Z,3.17
2018-01-20T08:02:56.195Z,3.14
2018-01-20T08:03:56.194Z,3.2
2018-01-20T08:05:10.900Z,3.14
2018-01-20T08:05:55.996Z,3.15
2018-01-20T08:06:56.247Z,3.11
2018-01-20T08:07:56.295Z,3.11
2018-01-20T08:08:56.010Z,3.15
2018-01-20T08:10:10.960Z,3.23
2018-01-20T08:10:56.312Z,3.18
2018-01-20T08:11:56.329Z,3.2
2018-01-20T08:12:56.341Z,3.18
2018-01-20T08:13:56.339Z,3.2
2018-01-20T08:14:56.094Z,3.18
2018-01-20T08:15:56.362Z,3.33
2018-01-20T08:16:56.394Z,3.43
2018-01-20T08:17:55.909Z,3.42
2018-01-20T08:18:56.407Z,3.32
2018-01-20T08:19:56.187Z,3.39
2018-01-20T08:20:56.570Z,3.32
2018-01-20T08:21:56.488Z,3.42
2018-01-20T08:22:56.582Z,3.54
2018-01-20T08:23:56.515Z,3.43
2018-01-20T08:25:10.943Z,3.42
2018-01-20T08:25:56.509Z,3.51
2018-01-20T08:26:56.520Z,3.51
2018-01-20T08:27:56.681Z,3.48
2018-01-20T08:28:56.321Z,3.48
2018-01-20T08:29:56.594Z,3.5
2018-01-20T08:30:56.349Z,3.48
2018-01-20T08:31:56.595Z,3.5
2018-01-20T08:32:56.631Z,3.57
2018-01-20T08:34:11.422Z,3.55
2018-01-20T08:35:11.324Z,3.62
2018-01-20T08:35:56.656Z,3.57
2018-01-20T08:36:56.680Z,3.57
2018-01-20T08:37:56.711Z,3.57
2018-01-20T08:39:11.485Z,3.66
2018-01-20T08:39:56.758Z,3.65
2018-01-20T08:40:56.772Z,3.57
2018-01-20T08:41:56.752Z,3.61
2018-01-20T08:42:56.768Z,3.66
2018-01-20T08:43:56.795Z,3.58
2018-01-20T08:44:56.813Z,3.6
2018-01-20T08:45:56.562Z,3.6
2018-01-20T08:46:56.586Z,3.61
2018-01-20T08:47:56.860Z,3.61
2018-01-20T08:48:56.609Z,3.75
2018-01-20T08:49:56.894Z,3.73
2018-01-20T08:50:56.909Z,3.78
2018-01-20T08:51:56.641Z,3.66
2018-01-20T08:52:56.689Z,3.68
2018-01-20T08:53:56.921Z,3.66
2018-01-20T08:54:56.941Z,3.72
2018-01-20T08:56:11.631Z,3.69
2018-01-20T08:57:11.671Z,3.73
2018-01-20T08:57:57.022Z,3.72
2018-01-20T08:58:57.044Z,3.72
2018-01-20T08:59:56.759Z,3.73
2018-01-20T09:00:57.047Z,3.76
2018-01-20T09:01:57.086Z,3.65
2018-01-20T09:02:57.063Z,3.69
2018-01-20T09:03:57.068Z,3.73
2018-01-20T09:04:56.845Z,3.76
2018-01-20T09:05:57.126Z,3.87
2018-01-20T09:07:57.132Z,3.91
2018-01-20T09:08:57.152Z,3.79
2018-01-20T09:09:57.161Z,3.8
2018-01-20T09:10:57.193Z,3.91
2018-01-20T09:11:57.235Z,3.96
2018-01-20T09:13:11.914Z,3.88
2018-01-20T09:13:57.342Z,3.83
2018-01-20T09:14:57.007Z,3.84
2018-01-20T09:15:57.256Z,3.9
2018-01-20T09:16:57.276Z,3.8
2018-01-20T09:17:57.285Z,3.83
2018-01-20T09:18:57.316Z,3.88
2018-01-20T09:19:57.084Z,3.78
2018-01-20T09:20:57.352Z,3.79
2018-01-20T09:21:57.350Z,3.86
2018-01-20T09:22:57.365Z,3.88
2018-01-20T09:23:57.377Z,3.83
2018-01-20T09:24:57.430Z,3.86
2018-01-20T09:26:57.451Z,3.75
2018-01-20T09:27:57.224Z,3.7
2018-01-20T09:29:12.156Z,3.62
2018-01-20T09:30:57.480Z,3.61
2018-01-20T09:31:57.506Z,3.51
2018-01-20T09:32:57.517Z,3.5
2018-01-20T09:33:57.648Z,3.39
2018-01-20T09:34:57.578Z,3.39
2018-01-20T09:35:57.630Z,3.43
2018-01-20T09:36:57.576Z,3.47
2018-01-20T09:39:12.311Z,3.35
2018-01-20T09:39:57.388Z,3.31
2018-01-20T09:40:57.416Z,3.39
2018-01-20T09:41:57.651Z,3.43
2018-01-20T09:42:57.673Z,3.51
2018-01-20T09:43:57.704Z,3.6
2018-01-20T09:45:12.398Z,3.6
2018-01-20T09:45:57.708Z,3.69
2018-01-20T09:46:57.507Z,3.73
2018-01-20T09:47:57.739Z,3.88
2018-01-20T09:48:57.800Z,3.79
2018-01-20T09:49:57.774Z,3.87
2018-01-20T09:50:57.555Z,3.83
2018-01-20T09:51:57.568Z,3.9
2018-01-20T09:52:57.820Z,3.97
2018-01-20T09:53:57.837Z,3.97
2018-01-20T09:54:57.863Z,4.08
2018-01-20T09:55:57.864Z,4.05
2018-01-20T09:56:57.999Z,4.02
2018-01-20T09:58:12.596Z,3.96
2018-01-20T09:58:57.655Z,4.05
2018-01-20T10:00:12.630Z,4.16
2018-01-20T10:00:57.691Z,4.02
2018-01-20T10:01:57.975Z,4.04
2018-01-20T10:02:57.991Z,4.02
2018-01-20T10:03:58.005Z,4
2018-01-20T10:04:58.030Z,4.08
2018-01-20T10:07:57.816Z,4.15
2018-01-20T10:08:58.163Z,4.15
2018-01-20T10:10:12.774Z,4.14
2018-01-20T10:10:58.130Z,4.14
2018-01-20T10:11:58.125Z,4.14
2018-01-20T10:13:12.801Z,4.09
2018-01-20T10:13:58.004Z,4.15
2018-01-20T10:14:58.172Z,4.22
2018-01-20T10:15:58.173Z,4.37
2018-01-20T10:16:58.177Z,4.32
2018-01-20T10:17:58.219Z,4.37
2018-01-20T10:18:58.240Z,4.51
2018-01-20T10:19:58.248Z,4.41
2018-01-20T10:20:58.242Z,4.58
2018-01-20T10:21:58.363Z,4.65
2018-01-20T10:22:58.275Z,4.73
2018-01-20T10:23:58.307Z,4.66
2018-01-20T10:24:58.076Z,4.54
2018-01-20T10:25:58.342Z,4.59
2018-01-20T10:26:58.344Z,4.52
2018-01-20T10:27:58.473Z,4.51
2018-01-20T10:28:58.377Z,4.55
2018-01-20T10:29:58.404Z,4.44
2018-01-20T10:32:12.843Z,4.41
2018-01-20T10:32:58.459Z,4.45
2018-01-20T10:33:58.467Z,4.5
2018-01-20T10:34:58.479Z,4.5
2018-01-20T10:36:58.516Z,4.55
2018-01-20T10:37:58.646Z,4.62
2018-01-20T10:38:58.494Z,4.58
2018-01-20T10:39:58.564Z,4.59
2018-01-20T10:41:58.573Z,4.65
2018-01-20T10:43:13.279Z,4.67
2018-01-20T10:43:58.349Z,4.72
2018-01-20T10:45:58.682Z,4.69
2018-01-20T10:46:58.658Z,4.67
2018-01-20T10:48:13.099Z,4.66
2018-01-20T10:48:58.706Z,4.65
2018-01-20T10:49:58.709Z,4.67
2018-01-20T10:50:58.472Z,4.72
2018-01-20T10:52:58.771Z,4.69
2018-01-20T10:53:58.773Z,4.7
2018-01-20T10:54:58.779Z,4.67
2018-01-20T10:55:58.536Z,4.65
2018-01-20T10:56:58.828Z,4.66
2018-01-20T10:57:58.848Z,4.72
2018-01-20T10:58:58.700Z,4.69
2018-01-20T11:00:58.618Z,4.65
2018-01-20T11:01:58.652Z,4.69
2018-01-20T11:02:58.655Z,4.8
2018-01-20T11:04:13.598Z,4.69
2018-01-20T11:04:58.925Z,4.78
2018-01-20T11:06:58.713Z,4.73
2018-01-20T11:07:58.720Z,4.67
2018-01-20T11:08:59.019Z,4.73
2018-01-20T11:09:59.049Z,4.7
2018-01-20T11:11:58.791Z,4.75
2018-01-20T11:13:58.833Z,4.72
2018-01-20T11:14:58.829Z,4.65
2018-01-20T11:15:58.868Z,4.62
2018-01-20T11:16:59.122Z,4.73
2018-01-20T11:17:59.146Z,4.67
2018-01-20T11:18:59.164Z,4.8
2018-01-20T11:20:13.941Z,4.88
2018-01-20T11:20:59.196Z,4.86
2018-01-20T11:21:58.958Z,5
2018-01-20T11:22:59.251Z,4.99
2018-01-20T11:23:58.981Z,5.04
2018-01-20T11:24:59.262Z,5.06
2018-01-20T11:25:59.375Z,5.13
2018-01-20T11:26:59.291Z,5.24
2018-01-20T11:27:59.048Z,5.1
2018-01-20T11:28:59.341Z,5.31
2018-01-20T11:29:59.343Z,5.31
2018-01-20T11:30:59.333Z,5.35
2018-01-20T11:31:59.356Z,5.31
2018-01-20T11:33:14.057Z,5.45
2018-01-20T11:33:59.512Z,5.38
2018-01-20T11:35:14.085Z,5.39
2018-01-20T11:35:58.948Z,5.45
2018-01-20T11:37:59.454Z,5.48
2018-01-20T11:38:59.463Z,5.49
2018-01-20T11:39:59.258Z,5.48
2018-01-20T11:40:59.518Z,5.4
2018-01-20T11:41:59.565Z,5.4
2018-01-20T11:42:59.524Z,5.4
2018-01-20T11:43:59.586Z,5.48
2018-01-20T11:44:59.580Z,5.39
2018-01-20T11:45:59.621Z,5.48
2018-01-20T11:46:59.595Z,5.43
2018-01-20T11:47:59.627Z,5.36
2018-01-20T11:48:59.669Z,5.33
2018-01-20T11:49:59.138Z,5.27
2018-01-20T11:50:59.664Z,5.2
2018-01-20T11:51:59.426Z,5.36
2018-01-20T11:52:59.706Z,5.24
2018-01-20T11:53:59.725Z,5.25
2018-01-20T11:54:59.724Z,5.28
2018-01-20T11:55:59.755Z,5.33
2018-01-20T11:56:59.753Z,5.31
2018-01-20T11:57:59.292Z,5.33
2018-01-20T11:58:59.815Z,5.35
2018-01-20T11:59:59.559Z,5.33
2018-01-20T12:00:59.583Z,5.4
2018-01-20T12:01:59.625Z,5.3
2018-01-20T12:02:59.846Z,5.28
2018-01-20T12:03:59.896Z,5.15
2018-01-20T12:05:14.564Z,5.21
2018-01-20T12:05:59.668Z,5.12
2018-01-20T12:07:14.366Z,5.24
2018-01-20T12:07:59.703Z,5.2
2018-01-20T12:08:59.721Z,5.17
2018-01-20T12:09:59.973Z,5.28
2018-01-20T12:10:59.522Z,5.24
2018-01-20T12:11:59.767Z,5.17
2018-01-20T12:12:59.774Z,5.21
2018-01-20T12:14:00.046Z,5.18
2018-01-20T12:15:00.057Z,5.18
2018-01-20T12:15:59.924Z,5.1
2018-01-20T12:17:00.093Z,5.09
2018-01-20T12:17:59.871Z,5.12
2018-01-20T12:18:59.878Z,5.13
2018-01-20T12:20:00.152Z,5.12
2018-01-20T12:22:00.171Z,5.24
2018-01-20T12:23:14.875Z,5.1
2018-01-20T12:24:00.213Z,5.17
2018-01-20T12:24:59.979Z,5.09
2018-01-20T12:26:00.269Z,5.09
2018-01-20T12:27:00.253Z,5.17
2018-01-20T12:28:00.271Z,5.27
2018-01-20T12:29:00.273Z,5.28
2018-01-20T12:30:00.285Z,5.33
2018-01-20T12:31:00.315Z,5.3
2018-01-20T12:32:00.316Z,5.31
2018-01-20T12:33:00.078Z,5.27
2018-01-20T12:34:00.124Z,5.24
2018-01-20T12:35:00.411Z,5.25
2018-01-20T12:36:00.384Z,5.18
2018-01-20T12:37:00.441Z,5.2
2018-01-20T12:38:00.414Z,5.15
2018-01-20T12:39:15.111Z,5.12
2018-01-20T12:40:00.470Z,5.1
2018-01-20T12:41:00.207Z,5.25
2018-01-20T12:42:00.258Z,5.27
2018-01-20T12:43:00.526Z,5.22
2018-01-20T12:44:00.523Z,5.25
2018-01-20T12:45:00.560Z,5.36
2018-01-20T12:46:00.559Z,5.38
2018-01-20T12:49:15.032Z,5.42
2018-01-20T12:50:00.599Z,5.48
2018-01-20T12:51:00.744Z,5.39
2018-01-20T12:52:00.652Z,5.48
2018-01-20T12:53:00.669Z,5.45
2018-01-20T12:54:00.666Z,5.43
2018-01-20T12:55:15.469Z,5.48
2018-01-20T12:56:00.727Z,5.53
2018-01-20T12:57:00.738Z,5.61
2018-01-20T12:58:00.736Z,5.6
2018-01-20T12:59:00.768Z,5.65
2018-01-20T13:00:00.793Z,5.72
2018-01-20T13:01:00.781Z,5.74
2018-01-20T13:02:00.802Z,5.72
2018-01-20T13:05:00.848Z,5.68
2018-01-20T13:06:00.859Z,5.65
2018-01-20T13:07:00.635Z,5.67
2018-01-20T13:08:00.916Z,5.6
2018-01-20T13:09:00.926Z,5.72
2018-01-20T13:10:15.614Z,5.64
2018-01-20T13:11:00.964Z,5.63
2018-01-20T13:12:01.009Z,5.63
2018-01-20T13:13:00.736Z,5.61
2018-01-20T13:14:01.011Z,5.6
2018-01-20T13:15:01.110Z,5.61
2018-01-20T13:16:01.063Z,5.65
2018-01-20T13:17:01.042Z,5.56
2018-01-20T13:18:01.177Z,5.56
2018-01-20T13:19:01.101Z,5.53
2018-01-20T13:20:15.799Z,5.53
2018-01-20T13:21:00.872Z,5.54
2018-01-20T13:22:01.143Z,5.48
2018-01-20T13:23:00.774Z,5.51
2018-01-20T13:24:15.845Z,5.43
2018-01-20T13:25:01.178Z,5.42
2018-01-20T13:26:01.187Z,5.33
2018-01-20T13:27:01.212Z,5.36
2018-01-20T13:28:01.249Z,5.36
2018-01-20T13:29:01.260Z,5.31
2018-01-20T13:30:01.048Z,5.4
2018-01-20T13:31:01.308Z,5.33
2018-01-20T13:32:01.282Z,5.33
2018-01-20T13:33:16.008Z,5.27
2018-01-20T13:34:01.091Z,5.31
2018-01-20T13:35:01.353Z,5.28
2018-01-20T13:37:01.407Z,5.28
2018-01-20T13:38:01.413Z,5.22
2018-01-20T13:39:01.398Z,5.3
2018-01-20T13:40:01.435Z,5.2
2018-01-20T13:41:01.460Z,5.27
2018-01-20T13:42:16.146Z,5.21
2018-01-20T13:43:01.485Z,5.2
2018-01-20T13:44:01.525Z,5.13
2018-01-20T13:45:01.591Z,5.24
2018-01-20T13:46:01.540Z,5.27
2018-01-20T13:47:01.544Z,5.21
2018-01-20T13:48:01.552Z,5.27
2018-01-20T13:49:01.568Z,5.31
2018-01-20T13:50:16.007Z,5.36
2018-01-20T13:51:01.614Z,5.36
2018-01-20T13:52:01.622Z,5.36
2018-01-20T13:53:01.662Z,5.33
2018-01-20T13:54:01.645Z,5.38
2018-01-20T13:55:01.659Z,5.36
2018-01-20T13:56:01.675Z,5.39
2018-01-20T13:57:01.473Z,5.35
2018-01-20T13:58:16.492Z,5.31
2018-01-20T13:59:01.853Z,5.35
2018-01-20T14:00:01.785Z,5.4
2018-01-20T14:01:01.754Z,5.38
2018-01-20T14:02:01.529Z,5.21
2018-01-20T14:04:01.802Z,5.28
2018-01-20T14:07:01.865Z,5.4
2018-01-20T14:08:01.734Z,5.27
2018-01-20T14:09:01.907Z,5.27
2018-01-20T14:10:16.347Z,5.21
2018-01-20T14:11:01.949Z,5.27
2018-01-20T14:12:01.680Z,5.28
2018-01-20T14:13:01.976Z,5.27